sensor_id;sensor_type;location;lat;lon;timestamp;P1;durP1;ratioP1;P2;durP2;ratioP2
13455;SDS011;6800;50.940;6.940;2023-07-29T00:03:44;4.53;;;3.72;;
13455;SDS011;6800;50.940;6.940;2023-07-29T00:07:45;3.35;;;3.08;;
13455;SDS011;6800;50.940;6.940;2023-07-29T00:11:46;4.57;;;4.15;;
13455;SDS011;6800;50.940;6.940;2023-07-29T00:15:48;10.32;;;8.93;;
13455;SDS011;6800;50.940;6.940;2023-07-29T00:19:49;6.57;;;5.97;;
13455;SDS011;6800;50.940;6.940;2023-07-29T00:23:51;8.30;;;7.53;;
13455;SDS011;6800;50.940;6.940;2023-07-29T00:27:54;5.25;;;4.85;;
13455;SDS011;6800;50.940;6.940;2023-07-29T00:31:56;10.93;;;9.00;;
13455;SDS011;6800;50.940;6.940;2023-07-29T00:35:59;5.38;;;5.05;;
13455;SDS011;6800;50.940;6.940;2023-07-29T00:40:03;5.72;;;5.32;;
13455;SDS011;6800;50.940;6.940;2023-07-29T00:44:13;7.38;;;6.78;;
13455;SDS011;6800;50.940;6.940;2023-07-29T00:48:15;29.65;;;25.42;;
13455;SDS011;6800;50.940;6.940;2023-07-29T00:52:16;4.72;;;3.60;;
13455;SDS011;6800;50.940;6.940;2023-07-29T00:56:18;7.28;;;6.70;;
13455;SDS011;6800;50.940;6.940;2023-07-29T01:00:20;9.18;;;8.38;;
13455;SDS011;6800;50.940;6.940;2023-07-29T01:04:22;4.90;;;4.57;;
13455;SDS011;6800;50.940;6.940;2023-07-29T01:12:36;8.38;;;7.57;;
13455;SDS011;6800;50.940;6.940;2023-07-29T01:16:51;8.15;;;7.45;;
13455;SDS011;6800;50.940;6.940;2023-07-29T01:21:00;9.15;;;8.27;;
13455;SDS011;6800;50.940;6.940;2023-07-29T01:25:05;6.47;;;5.78;;
13455;SDS011;6800;50.940;6.940;2023-07-29T01:29:07;7.32;;;6.57;;
13455;SDS011;6800;50.940;6.940;2023-07-29T01:33:16;7.00;;;6.50;;
13455;SDS011;6800;50.940;6.940;2023-07-29T01:37:22;6.85;;;6.18;;
13455;SDS011;6800;50.940;6.940;2023-07-29T01:41:27;7.60;;;6.90;;
13455;SDS011;6800;50.940;6.940;2023-07-29T01:45:29;7.85;;;7.03;;
13455;SDS011;6800;50.940;6.940;2023-07-29T01:49:33;8.77;;;8.00;;
13455;SDS011;6800;50.940;6.940;2023-07-29T01:53:34;6.55;;;6.10;;
13455;SDS011;6800;50.940;6.940;2023-07-29T01:57:36;7.10;;;6.40;;
13455;SDS011;6800;50.940;6.940;2023-07-29T02:01:37;7.93;;;6.97;;
13455;SDS011;6800;50.940;6.940;2023-07-29T02:05:38;9.98;;;8.32;;
13455;SDS011;6800;50.940;6.940;2023-07-29T02:09:40;10.57;;;9.23;;
13455;SDS011;6800;50.940;6.940;2023-07-29T02:13:41;7.88;;;7.18;;
13455;SDS011;6800;50.940;6.940;2023-07-29T02:17:43;9.73;;;8.82;;
13455;SDS011;6800;50.940;6.940;2023-07-29T02:21:44;8.35;;;7.43;;
13455;SDS011;6800;50.940;6.940;2023-07-29T02:25:46;6.68;;;5.97;;
13455;SDS011;6800;50.940;6.940;2023-07-29T02:29:47;7.72;;;7.05;;
13455;SDS011;6800;50.940;6.940;2023-07-29T02:33:49;6.25;;;4.70;;
13455;SDS011;6800;50.940;6.940;2023-07-29T02:37:50;9.40;;;6.15;;
13455;SDS011;6800;50.940;6.940;2023-07-29T02:41:52;9.32;;;7.57;;
13455;SDS011;6800;50.940;6.940;2023-07-29T02:45:53;11.73;;;8.15;;
13455;SDS011;6800;50.940;6.940;2023-07-29T02:49:54;8.15;;;7.35;;
13455;SDS011;6800;50.940;6.940;2023-07-29T02:53:56;8.80;;;7.90;;
13455;SDS011;6800;50.940;6.940;2023-07-29T02:57:58;8.23;;;7.43;;
13455;SDS011;6800;50.940;6.940;2023-07-29T03:01:59;12.13;;;10.93;;
13455;SDS011;6800;50.940;6.940;2023-07-29T03:06:04;6.13;;;5.63;;
13455;SDS011;6800;50.940;6.940;2023-07-29T03:10:07;7.40;;;6.47;;
13455;SDS011;6800;50.940;6.940;2023-07-29T03:14:08;3.70;;;3.40;;
13455;SDS011;6800;50.940;6.940;2023-07-29T03:18:10;2.80;;;2.60;;
13455;SDS011;6800;50.940;6.940;2023-07-29T03:22:11;2.80;;;2.60;;
13455;SDS011;6800;50.940;6.940;2023-07-29T03:26:12;3.15;;;2.85;;
13455;SDS011;6800;50.940;6.940;2023-07-29T03:30:14;3.47;;;3.13;;
13455;SDS011;6800;50.940;6.940;2023-07-29T03:34:15;3.30;;;2.50;;
13455;SDS011;6800;50.940;6.940;2023-07-29T03:38:16;3.17;;;2.90;;
13455;SDS011;6800;50.940;6.940;2023-07-29T03:42:18;6.00;;;3.17;;
13455;SDS011;6800;50.940;6.940;2023-07-29T03:46:19;3.47;;;3.17;;
13455;SDS011;6800;50.940;6.940;2023-07-29T03:50:23;3.75;;;2.85;;
13455;SDS011;6800;50.940;6.940;2023-07-29T03:54:25;3.55;;;3.00;;
13455;SDS011;6800;50.940;6.940;2023-07-29T03:58:27;3.50;;;3.17;;
13455;SDS011;6800;50.940;6.940;2023-07-29T04:02:28;4.28;;;3.22;;
13455;SDS011;6800;50.940;6.940;2023-07-29T04:06:30;5.05;;;3.25;;
13455;SDS011;6800;50.940;6.940;2023-07-29T04:10:31;4.95;;;3.72;;
13455;SDS011;6800;50.940;6.940;2023-07-29T04:14:33;3.78;;;3.22;;
13455;SDS011;6800;50.940;6.940;2023-07-29T04:18:34;3.72;;;3.42;;
13455;SDS011;6800;50.940;6.940;2023-07-29T04:22:35;3.95;;;3.50;;
13455;SDS011;6800;50.940;6.940;2023-07-29T04:26:37;4.10;;;3.70;;
13455;SDS011;6800;50.940;6.940;2023-07-29T04:30:42;4.38;;;3.50;;
13455;SDS011;6800;50.940;6.940;2023-07-29T04:34:43;4.30;;;3.90;;
13455;SDS011;6800;50.940;6.940;2023-07-29T04:38:44;4.40;;;4.00;;
13455;SDS011;6800;50.940;6.940;2023-07-29T04:42:46;4.45;;;4.05;;
13455;SDS011;6800;50.940;6.940;2023-07-29T04:46:47;4.35;;;4.05;;
13455;SDS011;6800;50.940;6.940;2023-07-29T04:50:49;4.55;;;4.18;;
13455;SDS011;6800;50.940;6.940;2023-07-29T04:54:50;5.30;;;4.80;;
13455;SDS011;6800;50.940;6.940;2023-07-29T04:58:52;5.32;;;4.82;;
13455;SDS011;6800;50.940;6.940;2023-07-29T05:02:54;5.07;;;4.57;;
13455;SDS011;6800;50.940;6.940;2023-07-29T05:06:55;9.25;;;4.90;;
13455;SDS011;6800;50.940;6.940;2023-07-29T05:10:56;5.60;;;5.10;;
13455;SDS011;6800;50.940;6.940;2023-07-29T05:14:58;5.13;;;4.70;;
13455;SDS011;6800;50.940;6.940;2023-07-29T05:18:59;7.18;;;5.20;;
13455;SDS011;6800;50.940;6.940;2023-07-29T05:23:01;5.47;;;5.07;;
13455;SDS011;6800;50.940;6.940;2023-07-29T05:27:02;5.40;;;5.00;;
13455;SDS011;6800;50.940;6.940;2023-07-29T05:31:03;4.82;;;4.38;;
13455;SDS011;6800;50.940;6.940;2023-07-29T05:35:05;5.10;;;4.60;;
13455;SDS011;6800;50.940;6.940;2023-07-29T05:39:07;5.43;;;4.15;;
13455;SDS011;6800;50.940;6.940;2023-07-29T05:43:08;4.93;;;4.32;;
13455;SDS011;6800;50.940;6.940;2023-07-29T05:47:10;5.10;;;4.57;;
13455;SDS011;6800;50.940;6.940;2023-07-29T05:51:11;4.80;;;4.40;;
13455;SDS011;6800;50.940;6.940;2023-07-29T05:55:12;4.38;;;4.00;;
13455;SDS011;6800;50.940;6.940;2023-07-29T05:59:14;4.47;;;3.53;;
13455;SDS011;6800;50.940;6.940;2023-07-29T06:03:15;4.10;;;3.72;;
13455;SDS011;6800;50.940;6.940;2023-07-29T06:07:16;4.00;;;3.55;;
13455;SDS011;6800;50.940;6.940;2023-07-29T06:11:18;6.68;;;3.90;;
13455;SDS011;6800;50.940;6.940;2023-07-29T06:15:19;3.58;;;3.20;;
13455;SDS011;6800;50.940;6.940;2023-07-29T06:19:23;3.95;;;3.42;;
13455;SDS011;6800;50.940;6.940;2023-07-29T06:23:25;4.05;;;3.35;;
13455;SDS011;6800;50.940;6.940;2023-07-29T06:27:26;3.97;;;3.45;;
13455;SDS011;6800;50.940;6.940;2023-07-29T06:31:28;3.03;;;2.80;;
13455;SDS011;6800;50.940;6.940;2023-07-29T06:35:30;3.10;;;2.80;;
13455;SDS011;6800;50.940;6.940;2023-07-29T06:39:32;3.58;;;2.97;;
13455;SDS011;6800;50.940;6.940;2023-07-29T06:43:33;2.80;;;2.60;;
13455;SDS011;6800;50.940;6.940;2023-07-29T06:47:34;3.17;;;2.88;;
13455;SDS011;6800;50.940;6.940;2023-07-29T06:51:36;4.80;;;2.60;;
13455;SDS011;6800;50.940;6.940;2023-07-29T06:55:37;4.35;;;2.50;;
13455;SDS011;6800;50.940;6.940;2023-07-29T06:59:39;4.68;;;2.95;;
13455;SDS011;6800;50.940;6.940;2023-07-29T07:03:40;2.33;;;2.10;;
13455;SDS011;6800;50.940;6.940;2023-07-29T07:07:42;3.05;;;2.75;;
13455;SDS011;6800;50.940;6.940;2023-07-29T07:11:43;3.08;;;2.63;;
13455;SDS011;6800;50.940;6.940;2023-07-29T07:15:45;3.90;;;2.10;;
13455;SDS011;6800;50.940;6.940;2023-07-29T07:19:46;2.40;;;2.20;;
13455;SDS011;6800;50.940;6.940;2023-07-29T07:23:49;2.67;;;2.05;;
13455;SDS011;6800;50.940;6.940;2023-07-29T07:27:51;3.17;;;2.28;;
13455;SDS011;6800;50.940;6.940;2023-07-29T07:31:53;2.90;;;1.95;;
13455;SDS011;6800;50.940;6.940;2023-07-29T07:35:55;2.80;;;2.10;;
13455;SDS011;6800;50.940;6.940;2023-07-29T07:39:57;2.03;;;1.50;;
13455;SDS011;6800;50.940;6.940;2023-07-29T07:43:58;2.35;;;1.65;;
13455;SDS011;6800;50.940;6.940;2023-07-29T07:48:00;2.45;;;1.80;;
13455;SDS011;6800;50.940;6.940;2023-07-29T07:52:01;2.53;;;2.05;;
13455;SDS011;6800;50.940;6.940;2023-07-29T07:56:02;2.42;;;1.92;;
13455;SDS011;6800;50.940;6.940;2023-07-29T08:00:04;2.72;;;1.60;;
13455;SDS011;6800;50.940;6.940;2023-07-29T08:04:06;2.10;;;1.77;;
13455;SDS011;6800;50.940;6.940;2023-07-29T08:08:08;2.95;;;1.80;;
13455;SDS011;6800;50.940;6.940;2023-07-29T08:12:09;4.38;;;1.75;;
13455;SDS011;6800;50.940;6.940;2023-07-29T08:16:12;2.75;;;1.65;;
13455;SDS011;6800;50.940;6.940;2023-07-29T08:20:14;2.33;;;1.60;;
13455;SDS011;6800;50.940;6.940;2023-07-29T08:24:15;2.20;;;1.98;;
13455;SDS011;6800;50.940;6.940;2023-07-29T08:28:16;3.10;;;1.48;;
13455;SDS011;6800;50.940;6.940;2023-07-29T08:32:18;3.20;;;1.80;;
13455;SDS011;6800;50.940;6.940;2023-07-29T08:36:19;3.88;;;2.03;;
13455;SDS011;6800;50.940;6.940;2023-07-29T08:40:22;1.80;;;1.70;;
13455;SDS011;6800;50.940;6.940;2023-07-29T08:44:38;2.40;;;2.20;;
13455;SDS011;6800;50.940;6.940;2023-07-29T08:48:43;3.35;;;2.45;;
13455;SDS011;6800;50.940;6.940;2023-07-29T08:52:44;2.85;;;2.20;;
13455;SDS011;6800;50.940;6.940;2023-07-29T08:56:47;2.50;;;2.30;;
13455;SDS011;6800;50.940;6.940;2023-07-29T09:00:49;2.92;;;2.00;;
13455;SDS011;6800;50.940;6.940;2023-07-29T09:04:51;1.80;;;1.70;;
13455;SDS011;6800;50.940;6.940;2023-07-29T09:08:53;3.28;;;2.08;;
13455;SDS011;6800;50.940;6.940;2023-07-29T09:12:57;2.13;;;1.92;;
13455;SDS011;6800;50.940;6.940;2023-07-29T09:16:58;1.92;;;1.83;;
13455;SDS011;6800;50.940;6.940;2023-07-29T09:21:00;1.70;;;1.60;;
13455;SDS011;6800;50.940;6.940;2023-07-29T09:25:02;1.85;;;1.75;;
13455;SDS011;6800;50.940;6.940;2023-07-29T09:29:04;2.33;;;1.67;;
13455;SDS011;6800;50.940;6.940;2023-07-29T09:33:06;1.77;;;1.67;;
13455;SDS011;6800;50.940;6.940;2023-07-29T09:37:08;1.55;;;1.45;;
13455;SDS011;6800;50.940;6.940;2023-07-29T09:41:12;3.55;;;1.70;;
13455;SDS011;6800;50.940;6.940;2023-07-29T09:45:25;1.70;;;1.60;;
13455;SDS011;6800;50.940;6.940;2023-07-29T09:49:28;3.88;;;2.10;;
13455;SDS011;6800;50.940;6.940;2023-07-29T09:53:29;2.28;;;2.08;;
13455;SDS011;6800;50.940;6.940;2023-07-29T09:57:32;2.42;;;1.80;;
13455;SDS011;6800;50.940;6.940;2023-07-29T10:01:34;3.53;;;1.95;;
13455;SDS011;6800;50.940;6.940;2023-07-29T10:05:38;3.80;;;2.85;;
13455;SDS011;6800;50.940;6.940;2023-07-29T10:09:40;3.13;;;2.20;;
13455;SDS011;6800;50.940;6.940;2023-07-29T10:13:42;2.50;;;2.40;;
13455;SDS011;6800;50.940;6.940;2023-07-29T10:17:56;4.65;;;3.40;;
13455;SDS011;6800;50.940;6.940;2023-07-29T10:21:59;3.53;;;2.72;;
13455;SDS011;6800;50.940;6.940;2023-07-29T10:26:04;5.90;;;3.20;;
13455;SDS011;6800;50.940;6.940;2023-07-29T10:30:07;2.95;;;2.65;;
13455;SDS011;6800;50.940;6.940;2023-07-29T10:34:09;5.25;;;3.20;;
13455;SDS011;6800;50.940;6.940;2023-07-29T10:38:13;4.43;;;3.45;;
13455;SDS011;6800;50.940;6.940;2023-07-29T10:42:16;3.67;;;3.22;;
13455;SDS011;6800;50.940;6.940;2023-07-29T10:46:21;2.95;;;2.63;;
13455;SDS011;6800;50.940;6.940;2023-07-29T10:50:24;2.55;;;2.03;;
13455;SDS011;6800;50.940;6.940;2023-07-29T10:54:25;2.38;;;2.00;;
13455;SDS011;6800;50.940;6.940;2023-07-29T10:58:26;3.05;;;2.33;;
13455;SDS011;6800;50.940;6.940;2023-07-29T11:02:32;2.58;;;2.28;;
13455;SDS011;6800;50.940;6.940;2023-07-29T11:07:01;3.60;;;2.92;;
13455;SDS011;6800;50.940;6.940;2023-07-29T11:11:04;3.55;;;3.08;;
13455;SDS011;6800;50.940;6.940;2023-07-29T11:19:08;2.45;;;2.00;;
13455;SDS011;6800;50.940;6.940;2023-07-29T11:23:17;2.67;;;2.35;;
13455;SDS011;6800;50.940;6.940;2023-07-29T11:27:19;3.20;;;2.75;;
13455;SDS011;6800;50.940;6.940;2023-07-29T11:31:20;2.55;;;2.30;;
13455;SDS011;6800;50.940;6.940;2023-07-29T11:35:22;4.15;;;2.80;;
13455;SDS011;6800;50.940;6.940;2023-07-29T11:39:24;3.78;;;2.40;;
13455;SDS011;6800;50.940;6.940;2023-07-29T11:43:26;2.85;;;2.65;;
13455;SDS011;6800;50.940;6.940;2023-07-29T11:47:28;4.03;;;2.38;;
13455;SDS011;6800;50.940;6.940;2023-07-29T11:51:29;2.50;;;2.30;;
13455;SDS011;6800;50.940;6.940;2023-07-29T11:55:30;2.50;;;2.30;;
13455;SDS011;6800;50.940;6.940;2023-07-29T11:59:35;2.50;;;2.30;;
13455;SDS011;6800;50.940;6.940;2023-07-29T12:03:37;3.05;;;2.67;;
13455;SDS011;6800;50.940;6.940;2023-07-29T12:07:39;2.50;;;2.30;;
13455;SDS011;6800;50.940;6.940;2023-07-29T12:11:42;2.30;;;2.10;;
13455;SDS011;6800;50.940;6.940;2023-07-29T12:15:43;2.50;;;2.30;;
13455;SDS011;6800;50.940;6.940;2023-07-29T12:19:45;5.50;;;4.18;;
13455;SDS011;6800;50.940;6.940;2023-07-29T12:23:46;3.30;;;3.10;;
13455;SDS011;6800;50.940;6.940;2023-07-29T12:27:48;2.60;;;2.40;;
13455;SDS011;6800;50.940;6.940;2023-07-29T12:31:53;4.35;;;4.05;;
13455;SDS011;6800;50.940;6.940;2023-07-29T12:35:59;3.35;;;3.10;;
13455;SDS011;6800;50.940;6.940;2023-07-29T12:40:01;3.97;;;2.67;;
13455;SDS011;6800;50.940;6.940;2023-07-29T12:44:03;2.80;;;2.60;;
13455;SDS011;6800;50.940;6.940;2023-07-29T12:48:04;2.20;;;2.10;;
13455;SDS011;6800;50.940;6.940;2023-07-29T12:52:06;2.30;;;2.10;;
13455;SDS011;6800;50.940;6.940;2023-07-29T12:56:07;2.60;;;2.42;;
13455;SDS011;6800;50.940;6.940;2023-07-29T13:00:09;4.03;;;3.72;;
13455;SDS011;6800;50.940;6.940;2023-07-29T13:04:11;3.08;;;2.88;;
13455;SDS011;6800;50.940;6.940;2023-07-29T13:08:12;3.50;;;3.20;;
13455;SDS011;6800;50.940;6.940;2023-07-29T13:12:14;2.42;;;2.33;;
13455;SDS011;6800;50.940;6.940;2023-07-29T13:16:15;3.10;;;2.90;;
13455;SDS011;6800;50.940;6.940;2023-07-29T13:20:17;3.40;;;3.10;;
13455;SDS011;6800;50.940;6.940;2023-07-29T13:24:18;3.55;;;3.35;;
13455;SDS011;6800;50.940;6.940;2023-07-29T13:28:19;3.60;;;3.30;;
13455;SDS011;6800;50.940;6.940;2023-07-29T13:32:21;3.17;;;2.88;;
13455;SDS011;6800;50.940;6.940;2023-07-29T13:36:22;2.90;;;2.70;;
13455;SDS011;6800;50.940;6.940;2023-07-29T13:40:24;7.25;;;4.50;;
13455;SDS011;6800;50.940;6.940;2023-07-29T13:44:25;5.10;;;4.60;;
13455;SDS011;6800;50.940;6.940;2023-07-29T13:48:26;4.95;;;4.22;;
13455;SDS011;6800;50.940;6.940;2023-07-29T13:52:28;5.10;;;4.60;;
13455;SDS011;6800;50.940;6.940;2023-07-29T13:56:29;5.78;;;4.57;;
13455;SDS011;6800;50.940;6.940;2023-07-29T14:00:31;4.78;;;3.65;;
13455;SDS011;6800;50.940;6.940;2023-07-29T14:04:32;5.10;;;3.85;;
13455;SDS011;6800;50.940;6.940;2023-07-29T14:08:34;6.22;;;4.30;;
13455;SDS011;6800;50.940;6.940;2023-07-29T14:12:36;4.25;;;3.55;;
13455;SDS011;6800;50.940;6.940;2023-07-29T14:16:37;5.18;;;3.90;;
13455;SDS011;6800;50.940;6.940;2023-07-29T14:20:40;4.97;;;3.50;;
13455;SDS011;6800;50.940;6.940;2023-07-29T14:24:42;6.25;;;4.38;;
13455;SDS011;6800;50.940;6.940;2023-07-29T14:28:43;5.22;;;3.75;;
13455;SDS011;6800;50.940;6.940;2023-07-29T14:32:44;3.63;;;3.30;;
13455;SDS011;6800;50.940;6.940;2023-07-29T14:36:46;2.97;;;2.55;;
13455;SDS011;6800;50.940;6.940;2023-07-29T14:40:47;2.83;;;2.58;;
13455;SDS011;6800;50.940;6.940;2023-07-29T14:44:49;2.83;;;2.63;;
13455;SDS011;6800;50.940;6.940;2023-07-29T14:48:50;3.22;;;2.30;;
13455;SDS011;6800;50.940;6.940;2023-07-29T14:52:52;3.22;;;2.60;;
13455;SDS011;6800;50.940;6.940;2023-07-29T14:56:53;4.75;;;3.10;;
13455;SDS011;6800;50.940;6.940;2023-07-29T15:00:55;3.08;;;2.53;;
13455;SDS011;6800;50.940;6.940;2023-07-29T15:04:57;2.72;;;2.33;;
13455;SDS011;6800;50.940;6.940;2023-07-29T15:08:58;2.60;;;2.20;;
13455;SDS011;6800;50.940;6.940;2023-07-29T15:13:00;2.28;;;2.08;;
13455;SDS011;6800;50.940;6.940;2023-07-29T15:17:01;3.67;;;2.28;;
13455;SDS011;6800;50.940;6.940;2023-07-29T15:21:03;2.03;;;1.83;;
13455;SDS011;6800;50.940;6.940;2023-07-29T15:25:04;2.00;;;1.85;;
13455;SDS011;6800;50.940;6.940;2023-07-29T15:29:06;2.30;;;2.03;;
13455;SDS011;6800;50.940;6.940;2023-07-29T15:33:08;2.65;;;1.92;;
13455;SDS011;6800;50.940;6.940;2023-07-29T15:37:09;2.67;;;2.08;;
13455;SDS011;6800;50.940;6.940;2023-07-29T15:41:11;2.85;;;2.25;;
13455;SDS011;6800;50.940;6.940;2023-07-29T15:45:12;3.45;;;2.50;;
13455;SDS011;6800;50.940;6.940;2023-07-29T15:49:14;5.10;;;2.47;;
13455;SDS011;6800;50.940;6.940;2023-07-29T15:53:15;2.53;;;2.33;;
13455;SDS011;6800;50.940;6.940;2023-07-29T15:57:16;3.15;;;2.80;;
13455;SDS011;6800;50.940;6.940;2023-07-29T16:01:18;2.90;;;2.70;;
13455;SDS011;6800;50.940;6.940;2023-07-29T16:05:19;3.22;;;2.85;;
13455;SDS011;6800;50.940;6.940;2023-07-29T16:09:21;8.65;;;7.85;;
13455;SDS011;6800;50.940;6.940;2023-07-29T16:13:22;5.82;;;4.60;;
13455;SDS011;6800;50.940;6.940;2023-07-29T16:17:24;5.25;;;4.10;;
13455;SDS011;6800;50.940;6.940;2023-07-29T16:21:25;3.33;;;3.00;;
13455;SDS011;6800;50.940;6.940;2023-07-29T16:25:27;4.07;;;3.47;;
13455;SDS011;6800;50.940;6.940;2023-07-29T16:29:29;3.45;;;3.15;;
13455;SDS011;6800;50.940;6.940;2023-07-29T16:33:30;3.15;;;2.67;;
13455;SDS011;6800;50.940;6.940;2023-07-29T16:37:31;2.88;;;2.58;;
13455;SDS011;6800;50.940;6.940;2023-07-29T16:41:33;3.60;;;2.92;;
13455;SDS011;6800;50.940;6.940;2023-07-29T16:45:54;2.78;;;2.53;;
13455;SDS011;6800;50.940;6.940;2023-07-29T16:49:56;2.72;;;2.30;;
13455;SDS011;6800;50.940;6.940;2023-07-29T16:54:10;3.78;;;2.65;;
13455;SDS011;6800;50.940;6.940;2023-07-29T16:58:11;2.50;;;2.30;;
13455;SDS011;6800;50.940;6.940;2023-07-29T17:02:12;2.88;;;2.65;;
13455;SDS011;6800;50.940;6.940;2023-07-29T17:06:14;2.80;;;2.60;;
13455;SDS011;6800;50.940;6.940;2023-07-29T17:10:15;3.55;;;3.25;;
13455;SDS011;6800;50.940;6.940;2023-07-29T17:14:17;4.03;;;3.58;;
13455;SDS011;6800;50.940;6.940;2023-07-29T17:18:19;4.20;;;3.80;;
13455;SDS011;6800;50.940;6.940;2023-07-29T17:22:21;4.88;;;4.07;;
13455;SDS011;6800;50.940;6.940;2023-07-29T17:26:22;3.63;;;3.33;;
13455;SDS011;6800;50.940;6.940;2023-07-29T17:30:24;4.03;;;3.53;;
13455;SDS011;6800;50.940;6.940;2023-07-29T17:34:32;5.25;;;3.80;;
13455;SDS011;6800;50.940;6.940;2023-07-29T17:38:33;4.07;;;3.78;;
13455;SDS011;6800;50.940;6.940;2023-07-29T17:42:34;5.22;;;3.50;;
13455;SDS011;6800;50.940;6.940;2023-07-29T17:46:36;4.38;;;3.97;;
13455;SDS011;6800;50.940;6.940;2023-07-29T17:50:38;5.30;;;4.90;;
13455;SDS011;6800;50.940;6.940;2023-07-29T17:54:39;4.20;;;3.80;;
13455;SDS011;6800;50.940;6.940;2023-07-29T17:58:41;4.85;;;4.35;;
13455;SDS011;6800;50.940;6.940;2023-07-29T18:02:42;4.75;;;4.28;;
13455;SDS011;6800;50.940;6.940;2023-07-29T18:06:44;5.13;;;4.63;;
13455;SDS011;6800;50.940;6.940;2023-07-29T18:10:45;7.30;;;5.80;;
13455;SDS011;6800;50.940;6.940;2023-07-29T18:14:47;13.80;;;8.07;;
13455;SDS011;6800;50.940;6.940;2023-07-29T18:18:49;6.68;;;5.30;;
13455;SDS011;6800;50.940;6.940;2023-07-29T18:22:50;7.18;;;6.47;;
13455;SDS011;6800;50.940;6.940;2023-07-29T18:26:52;7.97;;;6.85;;
13455;SDS011;6800;50.940;6.940;2023-07-29T18:30:54;7.57;;;6.88;;
13455;SDS011;6800;50.940;6.940;2023-07-29T18:34:55;6.95;;;6.35;;
13455;SDS011;6800;50.940;6.940;2023-07-29T18:38:57;7.65;;;6.85;;
13455;SDS011;6800;50.940;6.940;2023-07-29T18:42:58;7.65;;;6.95;;
13455;SDS011;6800;50.940;6.940;2023-07-29T18:46:59;5.88;;;5.40;;
13455;SDS011;6800;50.940;6.940;2023-07-29T18:51:01;7.22;;;6.55;;
13455;SDS011;6800;50.940;6.940;2023-07-29T18:55:02;7.65;;;6.80;;
13455;SDS011;6800;50.940;6.940;2023-07-29T18:59:04;11.20;;;10.00;;
13455;SDS011;6800;50.940;6.940;2023-07-29T19:03:06;8.68;;;7.78;;
13455;SDS011;6800;50.940;6.940;2023-07-29T19:07:07;9.93;;;8.38;;
13455;SDS011;6800;50.940;6.940;2023-07-29T19:11:09;14.38;;;12.88;;
13455;SDS011;6800;50.940;6.940;2023-07-29T19:15:11;13.35;;;12.05;;
13455;SDS011;6800;50.940;6.940;2023-07-29T19:19:12;6.70;;;6.10;;
13455;SDS011;6800;50.940;6.940;2023-07-29T19:23:14;6.88;;;5.97;;
13455;SDS011;6800;50.940;6.940;2023-07-29T19:27:15;6.43;;;5.82;;
13455;SDS011;6800;50.940;6.940;2023-07-29T19:31:17;6.93;;;6.22;;
13455;SDS011;6800;50.940;6.940;2023-07-29T19:35:18;6.80;;;6.20;;
13455;SDS011;6800;50.940;6.940;2023-07-29T19:39:20;6.65;;;6.05;;
13455;SDS011;6800;50.940;6.940;2023-07-29T19:43:22;6.40;;;5.90;;
13455;SDS011;6800;50.940;6.940;2023-07-29T19:47:26;7.05;;;6.20;;
13455;SDS011;6800;50.940;6.940;2023-07-29T19:51:27;7.20;;;6.40;;
13455;SDS011;6800;50.940;6.940;2023-07-29T19:55:32;7.07;;;6.47;;
13455;SDS011;6800;50.940;6.940;2023-07-29T19:59:34;6.95;;;6.35;;
13455;SDS011;6800;50.940;6.940;2023-07-29T20:03:48;7.03;;;6.35;;
13455;SDS011;6800;50.940;6.940;2023-07-29T20:07:49;8.50;;;7.70;;
13455;SDS011;6800;50.940;6.940;2023-07-29T20:11:51;7.28;;;6.55;;
13455;SDS011;6800;50.940;6.940;2023-07-29T20:15:53;6.85;;;6.15;;
13455;SDS011;6800;50.940;6.940;2023-07-29T20:19:54;7.72;;;6.95;;
13455;SDS011;6800;50.940;6.940;2023-07-29T20:23:56;7.97;;;6.65;;
13455;SDS011;6800;50.940;6.940;2023-07-29T20:27:57;7.57;;;6.95;;
13455;SDS011;6800;50.940;6.940;2023-07-29T20:31:59;7.15;;;6.55;;
13455;SDS011;6800;50.940;6.940;2023-07-29T20:36:00;7.07;;;6.32;;
13455;SDS011;6800;50.940;6.940;2023-07-29T20:40:02;7.10;;;6.50;;
13455;SDS011;6800;50.940;6.940;2023-07-29T20:44:05;6.82;;;6.20;;
13455;SDS011;6800;50.940;6.940;2023-07-29T20:48:11;5.47;;;5.07;;
13455;SDS011;6800;50.940;6.940;2023-07-29T20:52:13;10.55;;;9.57;;
13455;SDS011;6800;50.940;6.940;2023-07-29T20:56:14;8.32;;;7.53;;
13455;SDS011;6800;50.940;6.940;2023-07-29T21:00:16;10.00;;;9.13;;
13455;SDS011;6800;50.940;6.940;2023-07-29T21:04:18;7.45;;;6.70;;
13455;SDS011;6800;50.940;6.940;2023-07-29T21:08:19;6.35;;;5.75;;
13455;SDS011;6800;50.940;6.940;2023-07-29T21:12:21;6.70;;;6.00;;
13455;SDS011;6800;50.940;6.940;2023-07-29T21:16:22;7.90;;;7.30;;
13455;SDS011;6800;50.940;6.940;2023-07-29T21:20:23;7.72;;;7.03;;
13455;SDS011;6800;50.940;6.940;2023-07-29T21:24:25;8.68;;;7.82;;
13455;SDS011;6800;50.940;6.940;2023-07-29T21:28:26;11.80;;;9.52;;
13455;SDS011;6800;50.940;6.940;2023-07-29T21:32:28;10.60;;;9.60;;
13455;SDS011;6800;50.940;6.940;2023-07-29T21:36:29;9.65;;;8.10;;
13455;SDS011;6800;50.940;6.940;2023-07-29T21:40:31;5.65;;;4.95;;
13455;SDS011;6800;50.940;6.940;2023-07-29T21:44:32;5.43;;;4.93;;
13455;SDS011;6800;50.940;6.940;2023-07-29T21:48:33;7.03;;;6.38;;
13455;SDS011;6800;50.940;6.940;2023-07-29T21:52:35;6.25;;;4.45;;
13455;SDS011;6800;50.940;6.940;2023-07-29T21:56:36;5.50;;;4.05;;
13455;SDS011;6800;50.940;6.940;2023-07-29T22:00:38;3.92;;;3.53;;
13455;SDS011;6800;50.940;6.940;2023-07-29T22:04:40;5.10;;;4.70;;
13455;SDS011;6800;50.940;6.940;2023-07-29T22:08:41;4.38;;;3.97;;
13455;SDS011;6800;50.940;6.940;2023-07-29T22:12:42;4.20;;;3.53;;
13455;SDS011;6800;50.940;6.940;2023-07-29T22:16:45;6.68;;;6.00;;
13455;SDS011;6800;50.940;6.940;2023-07-29T22:20:54;8.15;;;6.50;;
13455;SDS011;6800;50.940;6.940;2023-07-29T22:24:56;5.45;;;3.97;;
13455;SDS011;6800;50.940;6.940;2023-07-29T22:28:58;4.75;;;3.80;;
13455;SDS011;6800;50.940;6.940;2023-07-29T22:33:00;4.30;;;3.88;;
13455;SDS011;6800;50.940;6.940;2023-07-29T22:37:01;5.05;;;3.70;;
13455;SDS011;6800;50.940;6.940;2023-07-29T22:41:03;4.80;;;3.72;;
13455;SDS011;6800;50.940;6.940;2023-07-29T22:45:04;4.10;;;3.70;;
13455;SDS011;6800;50.940;6.940;2023-07-29T22:49:06;7.15;;;3.70;;
13455;SDS011;6800;50.940;6.940;2023-07-29T22:53:07;4.55;;;3.97;;
13455;SDS011;6800;50.940;6.940;2023-07-29T22:57:11;3.95;;;3.60;;
13455;SDS011;6800;50.940;6.940;2023-07-29T23:01:12;4.75;;;3.85;;
13455;SDS011;6800;50.940;6.940;2023-07-29T23:05:17;5.80;;;3.78;;
13455;SDS011;6800;50.940;6.940;2023-07-29T23:09:18;4.00;;;3.33;;
13455;SDS011;6800;50.940;6.940;2023-07-29T23:13:20;4.22;;;3.20;;
13455;SDS011;6800;50.940;6.940;2023-07-29T23:17:21;13.68;;;11.77;;
13455;SDS011;6800;50.940;6.940;2023-07-29T23:21:23;7.32;;;5.80;;
13455;SDS011;6800;50.940;6.940;2023-07-29T23:25:24;8.90;;;7.53;;
13455;SDS011;6800;50.940;6.940;2023-07-29T23:29:26;10.82;;;9.60;;
13455;SDS011;6800;50.940;6.940;2023-07-29T23:33:28;6.55;;;5.20;;
13455;SDS011;6800;50.940;6.940;2023-07-29T23:37:30;6.68;;;5.57;;
13455;SDS011;6800;50.940;6.940;2023-07-29T23:41:31;9.00;;;5.53;;
13455;SDS011;6800;50.940;6.940;2023-07-29T23:45:33;11.48;;;9.63;;
13455;SDS011;6800;50.940;6.940;2023-07-29T23:49:34;6.45;;;4.30;;
13455;SDS011;6800;50.940;6.940;2023-07-29T23:53:36;5.70;;;4.75;;
13455;SDS011;6800;50.940;6.940;2023-07-29T23:57:37;10.70;;;7.82;;
